createdAt,value
2018-01-07T00:00:13.417Z,930.5
2018-01-07T00:01:26.466Z,930.49
2018-01-07T00:02:39.475Z,930.52
2018-01-07T00:03:52.514Z,930.54
2018-01-07T00:05:05.478Z,930.58
2018-01-07T00:06:18.524Z,930.57
2018-01-07T00:07:31.557Z,930.55
2018-01-07T00:08:44.568Z,930.58
2018-01-07T00:09:57.609Z,930.59
2018-01-07T00:11:10.631Z,930.56
2018-01-07T00:12:23.716Z,930.57
2018-01-07T00:13:36.724Z,930.6
2018-01-07T00:14:49.737Z,930.66
2018-01-07T00:16:02.720Z,930.65
2018-01-07T00:17:15.729Z,930.66
2018-01-07T00:18:28.755Z,930.63
2018-01-07T00:19:41.829Z,930.59
2018-01-07T00:20:54.856Z,930.64
2018-01-07T00:22:07.888Z,930.61
2018-01-07T00:23:20.904Z,930.6
2018-01-07T00:24:33.944Z,930.62
2018-01-07T00:25:46.969Z,930.59
2018-01-07T00:27:00.016Z,930.6
2018-01-07T00:28:13.026Z,930.66
2018-01-07T00:29:26.040Z,930.7
2018-01-07T00:30:39.060Z,930.71
2018-01-07T00:31:52.086Z,930.71
2018-01-07T00:33:05.094Z,930.74
2018-01-07T00:34:18.133Z,930.76
2018-01-07T00:35:31.160Z,930.77
2018-01-07T00:36:44.151Z,930.75
2018-01-07T00:37:57.240Z,930.74
2018-01-07T00:39:10.267Z,930.78
2018-01-07T00:40:23.325Z,930.75
2018-01-07T00:41:36.376Z,930.77
2018-01-07T00:42:49.367Z,930.74
2018-01-07T00:44:01.953Z,930.73
2018-01-07T00:45:14.983Z,930.7
2018-01-07T00:46:27.793Z,930.7
2018-01-07T00:47:40.834Z,930.75
2018-01-07T00:48:53.842Z,930.74
2018-01-07T00:50:06.900Z,930.75
2018-01-07T00:51:19.929Z,930.73
2018-01-07T00:52:32.975Z,930.76
2018-01-07T00:53:46.052Z,930.78
2018-01-07T00:54:58.641Z,930.85
2018-01-07T00:56:11.681Z,930.83
2018-01-07T00:57:24.687Z,930.87
2018-01-07T00:58:37.692Z,930.86
2018-01-07T00:59:50.709Z,930.87
2018-01-07T01:01:03.281Z,930.9
2018-01-07T01:02:16.357Z,930.92
2018-01-07T01:03:28.899Z,930.91
2018-01-07T01:04:41.908Z,930.95
2018-01-07T01:05:54.906Z,930.93
2018-01-07T01:07:07.974Z,930.97
2018-01-07T01:08:21.034Z,930.95
2018-01-07T01:09:34.044Z,930.96
2018-01-07T01:10:47.044Z,930.98
2018-01-07T01:12:00.070Z,930.97
2018-01-07T01:13:13.101Z,930.99
2018-01-07T01:14:26.143Z,931.01
2018-01-07T01:15:39.199Z,930.97
2018-01-07T01:16:52.224Z,931.01
2018-01-07T01:18:05.278Z,931.02
2018-01-07T01:19:18.301Z,931.09
2018-01-07T01:20:31.332Z,931.14
2018-01-07T01:21:44.337Z,931.2
2018-01-07T01:22:57.382Z,931.24
2018-01-07T01:24:10.451Z,931.27
2018-01-07T01:25:23.505Z,931.27
2018-01-07T01:26:36.578Z,931.23
2018-01-07T01:27:49.578Z,931.25
2018-01-07T01:29:02.600Z,931.33
2018-01-07T01:30:15.655Z,931.34
2018-01-07T01:31:28.657Z,931.35
2018-01-07T01:32:41.459Z,931.37
2018-01-07T01:33:54.449Z,931.35
2018-01-07T01:35:07.513Z,931.38
2018-01-07T01:36:20.544Z,931.35
2018-01-07T01:37:33.568Z,931.39
2018-01-07T01:38:46.613Z,931.38
2018-01-07T01:39:59.634Z,931.38
2018-01-07T01:41:12.731Z,931.34
2018-01-07T01:42:25.752Z,931.32
2018-01-07T01:43:38.768Z,931.32
2018-01-07T01:44:51.807Z,931.23
2018-01-07T01:46:04.798Z,931.26
2018-01-07T01:47:17.794Z,931.26
2018-01-07T01:48:30.822Z,931.27
2018-01-07T01:49:43.894Z,931.26
2018-01-07T01:50:56.962Z,931.26
2018-01-07T01:52:09.953Z,931.29
2018-01-07T01:53:23.012Z,931.32
2018-01-07T01:54:36.031Z,931.34
2018-01-07T01:55:49.083Z,931.33
2018-01-07T01:57:02.100Z,931.28
2018-01-07T01:58:14.664Z,931.29
2018-01-07T01:59:27.725Z,931.22
2018-01-07T02:00:40.773Z,931.26
2018-01-07T02:01:53.809Z,931.25
2018-01-07T02:03:06.830Z,931.23
2018-01-07T02:04:19.443Z,931.23
2018-01-07T02:05:32.484Z,931.22
2018-01-07T02:06:45.577Z,931.21
2018-01-07T02:07:58.600Z,931.19
2018-01-07T02:09:11.640Z,931.15
2018-01-07T02:10:24.672Z,931.15
2018-01-07T02:11:37.712Z,931.18
2018-01-07T02:12:50.761Z,931.18
2018-01-07T02:14:03.706Z,931.14
2018-01-07T02:15:16.506Z,931.17
2018-01-07T02:16:29.541Z,931.16
2018-01-07T02:17:42.517Z,931.11
2018-01-07T02:18:55.567Z,931.11
2018-01-07T02:20:08.580Z,931.14
2018-01-07T02:21:21.612Z,931.07
2018-01-07T02:22:34.685Z,931.09
2018-01-07T02:23:47.720Z,931.05
2018-01-07T02:25:00.254Z,931.04
2018-01-07T02:26:13.303Z,930.96
2018-01-07T02:27:26.378Z,930.97
2018-01-07T02:28:39.420Z,930.98
2018-01-07T02:29:52.526Z,930.98
2018-01-07T02:31:05.582Z,930.99
2018-01-07T02:32:18.668Z,930.96
2018-01-07T02:33:31.728Z,930.9
2018-01-07T02:34:44.783Z,930.92
2018-01-07T02:35:57.803Z,930.89
2018-01-07T02:37:10.872Z,930.88
2018-01-07T02:38:23.994Z,930.87
2018-01-07T02:39:37.080Z,930.84
2018-01-07T02:40:49.814Z,930.81
2018-01-07T02:42:02.894Z,930.81
2018-01-07T02:43:15.904Z,930.77
2018-01-07T02:44:28.970Z,930.78
2018-01-07T02:45:42.023Z,930.75
2018-01-07T02:46:55.009Z,930.74
2018-01-07T02:48:08.083Z,930.71
2018-01-07T02:49:21.079Z,930.7
2018-01-07T02:50:34.159Z,930.71
2018-01-07T02:51:47.230Z,930.68
2018-01-07T02:53:00.232Z,930.71
2018-01-07T02:54:13.211Z,930.65
2018-01-07T02:55:26.245Z,930.67
2018-01-07T02:56:39.294Z,930.65
2018-01-07T02:57:52.315Z,930.67
2018-01-07T02:59:05.370Z,930.6
2018-01-07T03:00:18.440Z,930.57
2018-01-07T03:01:31.228Z,930.52
2018-01-07T03:02:44.249Z,930.53
2018-01-07T03:03:57.302Z,930.5
2018-01-07T03:05:10.292Z,930.46
2018-01-07T03:06:23.288Z,930.48
2018-01-07T03:07:36.353Z,930.43
2018-01-07T03:08:49.417Z,930.44
2018-01-07T03:10:02.508Z,930.43
2018-01-07T03:11:15.552Z,930.47
2018-01-07T03:12:28.567Z,930.48
2018-01-07T03:13:41.609Z,930.46
2018-01-07T03:14:54.572Z,930.45
2018-01-07T03:16:07.603Z,930.53
2018-01-07T03:17:20.665Z,930.46
2018-01-07T03:18:33.665Z,930.49
2018-01-07T03:19:46.724Z,930.49
2018-01-07T03:20:59.746Z,930.42
2018-01-07T03:22:12.777Z,930.38
2018-01-07T03:23:25.781Z,930.38
2018-01-07T03:24:38.784Z,930.34
2018-01-07T03:25:51.837Z,930.34
2018-01-07T03:27:04.896Z,930.32
2018-01-07T03:28:17.916Z,930.29
2018-01-07T03:29:30.933Z,930.34
2018-01-07T03:30:44.010Z,930.38
2018-01-07T03:31:57.114Z,930.39
2018-01-07T03:33:10.199Z,930.43
2018-01-07T03:34:23.187Z,930.47
2018-01-07T03:35:36.241Z,930.44
2018-01-07T03:36:49.293Z,930.45
2018-01-07T03:38:02.280Z,930.43
2018-01-07T03:39:15.298Z,930.42
2018-01-07T03:40:28.321Z,930.39
2018-01-07T03:41:41.340Z,930.33
2018-01-07T03:42:54.340Z,930.37
2018-01-07T03:44:07.372Z,930.36
2018-01-07T03:45:20.351Z,930.33
2018-01-07T03:46:33.435Z,930.32
2018-01-07T03:47:46.419Z,930.33
2018-01-07T03:48:59.438Z,930.35
2018-01-07T03:50:12.452Z,930.32
2018-01-07T03:51:25.485Z,930.3
2018-01-07T03:52:38.556Z,930.24
2018-01-07T03:53:51.598Z,930.23
2018-01-07T03:55:04.628Z,930.2
2018-01-07T03:56:17.664Z,930.2
2018-01-07T03:57:30.699Z,930.22
2018-01-07T03:58:43.798Z,930.15
2018-01-07T03:59:56.847Z,930.14
2018-01-07T04:01:09.908Z,930.08
2018-01-07T04:02:22.979Z,930.12
2018-01-07T04:03:36.030Z,930.13
2018-01-07T04:04:49.036Z,930.1
2018-01-07T04:06:01.996Z,930.15
2018-01-07T04:07:15.045Z,930.16
2018-01-07T04:08:28.060Z,930.13
2018-01-07T04:09:41.084Z,930.14
2018-01-07T04:10:54.118Z,930.19
2018-01-07T04:12:07.141Z,930.19
2018-01-07T04:13:20.159Z,930.18
2018-01-07T04:14:33.238Z,930.14
2018-01-07T04:15:46.234Z,930.16
2018-01-07T04:16:59.220Z,930.15
2018-01-07T04:18:11.793Z,930.16
2018-01-07T04:19:24.811Z,930.14
2018-01-07T04:20:37.897Z,930.09
2018-01-07T04:21:50.978Z,930.07
2018-01-07T04:23:04.012Z,930.02
2018-01-07T04:24:17.052Z,930.02
2018-01-07T04:25:30.085Z,929.97
2018-01-07T04:26:43.150Z,929.95
2018-01-07T04:27:56.131Z,929.94
2018-01-07T04:29:09.178Z,929.96
2018-01-07T04:30:22.205Z,929.94
2018-01-07T04:31:34.601Z,929.96
2018-01-07T04:32:47.630Z,929.94
2018-01-07T04:34:00.587Z,929.94
2018-01-07T04:35:13.629Z,929.93
2018-01-07T04:36:26.173Z,929.92
2018-01-07T04:37:39.209Z,929.94
2018-01-07T04:38:52.296Z,929.9
2018-01-07T04:40:05.300Z,929.91
2018-01-07T04:41:18.304Z,929.92
2018-01-07T04:42:31.329Z,929.91
2018-01-07T04:43:44.346Z,929.93
2018-01-07T04:44:57.358Z,929.89
2018-01-07T04:46:10.394Z,929.83
2018-01-07T04:47:23.462Z,929.82
2018-01-07T04:48:36.500Z,929.85
2018-01-07T04:49:49.554Z,929.85
2018-01-07T04:51:02.573Z,929.8
2018-01-07T04:52:15.576Z,929.8
2018-01-07T04:53:28.383Z,929.81
2018-01-07T04:54:41.419Z,929.83
2018-01-07T04:55:54.455Z,929.8
2018-01-07T04:57:07.463Z,929.85
2018-01-07T04:58:20.539Z,929.86
2018-01-07T04:59:33.552Z,929.83
2018-01-07T05:00:46.344Z,929.79
2018-01-07T05:01:59.340Z,929.76
2018-01-07T05:03:12.167Z,929.75
2018-01-07T05:04:25.160Z,929.7
2018-01-07T05:05:38.163Z,929.65
2018-01-07T05:06:51.211Z,929.66
2018-01-07T05:08:04.233Z,929.64
2018-01-07T05:09:17.285Z,929.64
2018-01-07T05:10:30.316Z,929.6
2018-01-07T05:11:43.307Z,929.51
2018-01-07T05:12:56.363Z,929.51
2018-01-07T05:14:09.412Z,929.5
2018-01-07T05:15:22.458Z,929.45
2018-01-07T05:16:35.507Z,929.43
2018-01-07T05:17:48.545Z,929.44
2018-01-07T05:19:01.586Z,929.45
2018-01-07T05:20:14.241Z,929.44
2018-01-07T05:21:27.274Z,929.38
2018-01-07T05:22:40.313Z,929.34
2018-01-07T05:23:53.338Z,929.32
2018-01-07T05:25:06.352Z,929.3
2018-01-07T05:26:19.372Z,929.27
2018-01-07T05:27:32.386Z,929.25
2018-01-07T05:28:45.400Z,929.22
2018-01-07T05:29:58.479Z,929.23
2018-01-07T05:31:11.499Z,929.21
2018-01-07T05:32:24.500Z,929.22
2018-01-07T05:33:37.528Z,929.18
2018-01-07T05:34:50.578Z,929.19
2018-01-07T05:36:03.552Z,929.17
2018-01-07T05:37:16.619Z,929.16
2018-01-07T05:38:29.423Z,929.13
2018-01-07T05:39:42.460Z,929.19
2018-01-07T05:40:55.496Z,929.17
2018-01-07T05:42:08.518Z,929.18
2018-01-07T05:43:21.549Z,929.16
2018-01-07T05:44:34.559Z,929.2
2018-01-07T05:45:47.594Z,929.22
2018-01-07T05:47:00.657Z,929.22
2018-01-07T05:48:13.695Z,929.26
2018-01-07T05:49:26.695Z,929.27
2018-01-07T05:50:39.703Z,929.3
2018-01-07T05:51:52.752Z,929.3
2018-01-07T05:53:05.787Z,929.33
2018-01-07T05:54:18.775Z,929.33
2018-01-07T05:55:31.812Z,929.37
2018-01-07T05:56:44.847Z,929.36
2018-01-07T05:57:57.421Z,929.38
2018-01-07T05:59:10.464Z,929.4
2018-01-07T06:00:23.274Z,929.43
2018-01-07T06:01:36.266Z,929.43
2018-01-07T06:02:49.272Z,929.4
2018-01-07T06:04:02.297Z,929.4
2018-01-07T06:05:15.317Z,929.36
2018-01-07T06:06:28.323Z,929.37
2018-01-07T06:07:41.300Z,929.35
2018-01-07T06:08:54.361Z,929.33
2018-01-07T06:10:07.412Z,929.35
2018-01-07T06:11:20.210Z,929.32
2018-01-07T06:12:33.311Z,929.28
2018-01-07T06:13:46.323Z,929.29
2018-01-07T06:14:59.349Z,929.28
2018-01-07T06:16:12.391Z,929.25
2018-01-07T06:17:25.434Z,929.23
2018-01-07T06:18:38.498Z,929.24
2018-01-07T06:19:51.556Z,929.24
2018-01-07T06:21:04.668Z,929.25
2018-01-07T06:22:17.663Z,929.19
2018-01-07T06:23:30.211Z,929.2
2018-01-07T06:24:43.205Z,929.19
2018-01-07T06:25:56.220Z,929.15
2018-01-07T06:27:09.386Z,929.14
2018-01-07T06:28:22.581Z,929.13
2018-01-07T06:29:35.631Z,929.13
2018-01-07T06:30:48.687Z,929.1
2018-01-07T06:32:01.718Z,929.06
2018-01-07T06:33:14.744Z,929
2018-01-07T06:34:27.312Z,929.02
2018-01-07T06:35:40.329Z,928.97
2018-01-07T06:36:53.360Z,928.97
2018-01-07T06:38:06.410Z,928.98
2018-01-07T06:39:19.424Z,928.97
2018-01-07T06:40:32.447Z,929
2018-01-07T06:41:45.455Z,928.95
2018-01-07T06:42:58.530Z,928.96
2018-01-07T06:44:11.557Z,928.94
2018-01-07T06:45:24.169Z,928.95
2018-01-07T06:46:36.797Z,928.96
2018-01-07T06:47:49.770Z,928.95
2018-01-07T06:49:02.819Z,928.99
2018-01-07T06:50:15.905Z,928.95
2018-01-07T06:51:28.940Z,928.98
2018-01-07T06:52:42.040Z,929
2018-01-07T06:53:55.077Z,928.99
2018-01-07T06:55:07.883Z,929
2018-01-07T06:56:20.677Z,929
2018-01-07T06:57:33.501Z,929.01
2018-01-07T06:58:46.546Z,928.99
2018-01-07T06:59:59.563Z,928.99
2018-01-07T07:01:12.585Z,928.99
2018-01-07T07:02:25.146Z,929.02
2018-01-07T07:03:38.172Z,929.01
2018-01-07T07:04:51.183Z,928.99
2018-01-07T07:06:04.165Z,928.95
2018-01-07T07:07:17.195Z,928.95
2018-01-07T07:08:30.243Z,928.97
2018-01-07T07:09:43.279Z,928.94
2018-01-07T07:10:56.334Z,928.94
2018-01-07T07:12:09.194Z,928.91
2018-01-07T07:13:22.206Z,928.98
2018-01-07T07:14:35.227Z,928.96
2018-01-07T07:15:48.229Z,928.96
2018-01-07T07:17:01.262Z,929.01
2018-01-07T07:18:14.297Z,929.02
2018-01-07T07:19:27.385Z,929.02
2018-01-07T07:20:40.407Z,929.02
2018-01-07T07:21:53.459Z,929.06
2018-01-07T07:23:06.442Z,929.02
2018-01-07T07:24:19.433Z,929.05
2018-01-07T07:25:32.514Z,929.05
2018-01-07T07:26:45.523Z,929.05
2018-01-07T07:27:58.552Z,929.06
2018-01-07T07:29:11.607Z,929.14
2018-01-07T07:30:24.714Z,929.15
2018-01-07T07:31:37.714Z,929.17
2018-01-07T07:32:50.707Z,929.18
2018-01-07T07:34:03.724Z,929.17
2018-01-07T07:35:16.722Z,929.18
2018-01-07T07:36:29.751Z,929.15
2018-01-07T07:37:42.813Z,929.17
2018-01-07T07:38:55.867Z,929.14
2018-01-07T07:40:08.929Z,929.17
2018-01-07T07:41:22.036Z,929.16
2018-01-07T07:42:35.047Z,929.19
2018-01-07T07:43:48.125Z,929.21
2018-01-07T07:45:01.144Z,929.23
2018-01-07T07:46:14.173Z,929.25
2018-01-07T07:47:27.181Z,929.34
2018-01-07T07:48:40.175Z,929.35
2018-01-07T07:49:53.220Z,929.36
2018-01-07T07:51:06.276Z,929.3
2018-01-07T07:52:19.328Z,929.31
2018-01-07T07:53:32.371Z,929.33
2018-01-07T07:54:45.385Z,929.39
2018-01-07T07:55:58.368Z,929.39
2018-01-07T07:57:11.395Z,929.4
2018-01-07T07:58:24.440Z,929.39
2018-01-07T07:59:37.528Z,929.41
2018-01-07T08:00:50.596Z,929.44
2018-01-07T08:02:03.717Z,929.43
2018-01-07T08:03:16.773Z,929.47
2018-01-07T08:04:29.864Z,929.49
2018-01-07T08:05:42.866Z,929.52
2018-01-07T08:06:55.928Z,929.58
2018-01-07T08:08:08.948Z,929.59
2018-01-07T08:09:21.990Z,929.58
2018-01-07T08:10:35.074Z,929.61
2018-01-07T08:11:47.893Z,929.64
2018-01-07T08:13:00.863Z,929.68
2018-01-07T08:14:13.887Z,929.73
2018-01-07T08:15:26.683Z,929.77
2018-01-07T08:16:39.753Z,929.74
2018-01-07T08:17:52.788Z,929.79
2018-01-07T08:19:05.807Z,929.78
2018-01-07T08:20:18.808Z,929.79
2018-01-07T08:21:31.376Z,929.77
2018-01-07T08:22:44.348Z,929.77
2018-01-07T08:23:56.971Z,929.73
2018-01-07T08:25:09.991Z,929.75
2018-01-07T08:26:23.007Z,929.74
2018-01-07T08:27:36.005Z,929.76
2018-01-07T08:28:48.802Z,929.79
2018-01-07T08:30:01.826Z,929.78
2018-01-07T08:31:14.915Z,929.75
2018-01-07T08:32:27.953Z,929.74
2018-01-07T08:33:40.986Z,929.73
2018-01-07T08:34:54.059Z,929.73
2018-01-07T08:36:07.100Z,929.74
2018-01-07T08:37:20.183Z,929.77
2018-01-07T08:38:33.225Z,929.82
2018-01-07T08:39:45.766Z,929.83
2018-01-07T08:40:58.808Z,929.79
2018-01-07T08:42:11.875Z,929.82
2018-01-07T08:43:24.900Z,929.83
2018-01-07T08:44:37.911Z,929.8
2018-01-07T08:45:50.909Z,929.94
2018-01-07T08:47:03.918Z,929.93
2018-01-07T08:48:16.878Z,929.97
2018-01-07T08:49:29.918Z,929.98
2018-01-07T08:50:42.973Z,929.99
2018-01-07T08:51:56.019Z,930.03
2018-01-07T08:53:09.059Z,930.01
2018-01-07T08:54:22.151Z,929.99
2018-01-07T08:55:35.204Z,929.98
2018-01-07T08:56:48.218Z,929.99
2018-01-07T08:58:01.247Z,930.02
2018-01-07T08:59:14.294Z,930
2018-01-07T09:00:27.327Z,929.99
2018-01-07T09:01:40.356Z,929.99
2018-01-07T09:02:53.418Z,930.02
2018-01-07T09:04:06.424Z,930.03
2018-01-07T09:05:19.441Z,930.06
2018-01-07T09:06:32.487Z,930.05
2018-01-07T09:07:45.539Z,930.08
2018-01-07T09:08:58.607Z,930.12
2018-01-07T09:10:11.700Z,930.1
2018-01-07T09:11:24.713Z,930.14
2018-01-07T09:12:37.753Z,930.11
2018-01-07T09:13:50.792Z,930.13
2018-01-07T09:15:03.842Z,930.13
2018-01-07T09:16:16.889Z,930.15
2018-01-07T09:17:29.982Z,930.15
2018-01-07T09:18:43.023Z,930.16
2018-01-07T09:19:56.093Z,930.2
2018-01-07T09:21:08.688Z,930.25
2018-01-07T09:22:21.737Z,930.25
2018-01-07T09:23:34.756Z,930.27
2018-01-07T09:24:47.832Z,930.31
2018-01-07T09:26:00.679Z,930.33
2018-01-07T09:27:13.719Z,930.33
2018-01-07T09:28:26.713Z,930.31
2018-01-07T09:29:39.263Z,930.33
2018-01-07T09:30:52.277Z,930.34
2018-01-07T09:32:36.510Z,930.38
2018-01-07T09:33:49.523Z,930.42
2018-01-07T09:35:02.616Z,930.42
2018-01-07T09:36:15.672Z,930.43
2018-01-07T09:37:28.690Z,930.46
2018-01-07T09:38:41.718Z,930.49
2018-01-07T09:39:54.756Z,930.49
2018-01-07T09:41:07.793Z,930.54
2018-01-07T09:42:20.823Z,930.54
2018-01-07T09:43:33.858Z,930.59
2018-01-07T09:44:46.429Z,930.57
2018-01-07T09:45:59.424Z,930.58
2018-01-07T09:47:12.448Z,930.59
2018-01-07T09:48:25.473Z,930.58
2018-01-07T09:49:38.502Z,930.6
2018-01-07T09:50:51.537Z,930.61
2018-01-07T09:52:04.568Z,930.58
2018-01-07T09:53:17.594Z,930.62
2018-01-07T09:54:30.621Z,930.6
2018-01-07T09:55:43.610Z,930.66
2018-01-07T09:56:56.606Z,930.64
2018-01-07T09:58:09.617Z,930.65
2018-01-07T09:59:22.621Z,930.62
2018-01-07T10:00:35.637Z,930.63
2018-01-07T10:01:48.629Z,930.62
2018-01-07T10:03:01.239Z,930.64
2018-01-07T10:04:14.292Z,930.66
2018-01-07T10:05:27.304Z,930.62
2018-01-07T10:06:40.287Z,930.62
2018-01-07T10:07:53.340Z,930.64
2018-01-07T10:09:06.360Z,930.6
2018-01-07T10:10:19.378Z,930.64
2018-01-07T10:11:32.394Z,930.71
2018-01-07T10:12:45.460Z,930.75
2018-01-07T10:13:58.514Z,930.78
2018-01-07T10:15:11.573Z,930.82
2018-01-07T10:16:24.564Z,930.83
2018-01-07T10:17:37.601Z,930.84
2018-01-07T10:18:50.666Z,930.85
2018-01-07T10:20:03.737Z,930.86
2018-01-07T10:21:16.787Z,930.83
2018-01-07T10:22:29.865Z,930.79
2018-01-07T10:23:42.889Z,930.83
2018-01-07T10:24:55.848Z,930.82
2018-01-07T10:26:08.411Z,930.83
2018-01-07T10:27:21.226Z,930.84
2018-01-07T10:28:34.230Z,930.88
2018-01-07T10:29:47.316Z,930.89
2018-01-07T10:31:00.140Z,930.93
2018-01-07T10:32:13.160Z,930.93
2018-01-07T10:33:26.210Z,930.98
2018-01-07T10:34:39.209Z,930.96
2018-01-07T10:35:52.211Z,930.97
2018-01-07T10:37:05.302Z,931
2018-01-07T10:38:18.379Z,931.03
2018-01-07T10:39:31.406Z,931.04
2018-01-07T10:40:44.414Z,931.05
2018-01-07T10:41:57.475Z,931.05
2018-01-07T10:43:10.500Z,931.06
2018-01-07T10:44:23.530Z,931.04
2018-01-07T10:45:36.559Z,931.04
2018-01-07T10:46:49.567Z,931.04
2018-01-07T10:48:02.607Z,931.03
2018-01-07T10:49:15.705Z,931.06
2018-01-07T10:50:28.754Z,930.99
2018-01-07T10:51:41.856Z,931.03
2018-01-07T10:52:54.910Z,931.06
2018-01-07T10:54:07.924Z,931.03
2018-01-07T10:55:20.737Z,931.03
2018-01-07T10:56:33.790Z,931.04
2018-01-07T10:57:46.819Z,931.05
2018-01-07T10:58:59.828Z,931.08
2018-01-07T11:00:12.914Z,931.1
2018-01-07T11:01:25.957Z,931.07
2018-01-07T11:02:38.955Z,931.1
2018-01-07T11:03:52.028Z,931.1
2018-01-07T11:05:05.012Z,931.13
2018-01-07T11:06:18.039Z,931.16
2018-01-07T11:07:31.091Z,931.21
2018-01-07T11:08:44.089Z,931.2
2018-01-07T11:09:57.133Z,931.22
2018-01-07T11:11:10.167Z,931.22
2018-01-07T11:12:23.206Z,931.23
2018-01-07T11:13:36.215Z,931.22
2018-01-07T11:14:49.211Z,931.27
2018-01-07T11:16:02.261Z,931.29
2018-01-07T11:17:14.783Z,931.29
2018-01-07T11:18:27.579Z,931.34
2018-01-07T11:19:40.597Z,931.33
2018-01-07T11:20:53.602Z,931.39
2018-01-07T11:22:06.608Z,931.46
2018-01-07T11:23:19.574Z,931.47
2018-01-07T11:24:32.636Z,931.5
2018-01-07T11:25:45.432Z,931.55
2018-01-07T11:26:58.003Z,931.52
2018-01-07T11:28:11.059Z,931.48
2018-01-07T11:29:24.078Z,931.5
2018-01-07T11:30:37.095Z,931.53
2018-01-07T11:31:50.074Z,931.54
2018-01-07T11:33:03.131Z,931.56
2018-01-07T11:34:16.214Z,931.55
2018-01-07T11:35:29.206Z,931.58
2018-01-07T11:36:41.750Z,931.59
2018-01-07T11:37:54.767Z,931.61
2018-01-07T11:39:07.589Z,931.62
2018-01-07T11:40:20.642Z,931.62
2018-01-07T11:41:33.683Z,931.6
2018-01-07T11:42:46.760Z,931.59
2018-01-07T11:43:59.781Z,931.63
2018-01-07T11:45:12.116Z,931.6
2018-01-07T11:46:25.128Z,931.6
2018-01-07T11:47:38.123Z,931.59
2018-01-07T11:48:51.116Z,931.62
2018-01-07T11:50:04.148Z,931.63
2018-01-07T11:51:17.276Z,931.65
2018-01-07T11:52:30.346Z,931.63
2018-01-07T11:53:43.336Z,931.68
2018-01-07T11:54:56.324Z,931.68
2018-01-07T11:56:09.345Z,931.7
2018-01-07T11:57:21.936Z,931.72
2018-01-07T11:58:35.014Z,931.72
2018-01-07T11:59:48.158Z,931.75
2018-01-07T12:01:01.225Z,931.74
2018-01-07T12:02:14.013Z,931.78
2018-01-07T12:03:27.058Z,931.81
2018-01-07T12:04:40.124Z,931.78
2018-01-07T12:05:53.133Z,931.78
2018-01-07T12:07:06.149Z,931.79
2018-01-07T12:08:19.173Z,931.76
2018-01-07T12:09:32.266Z,931.73
2018-01-07T12:10:45.309Z,931.74
2018-01-07T12:11:58.310Z,931.76
2018-01-07T12:13:11.317Z,931.76
2018-01-07T12:14:24.300Z,931.77
2018-01-07T12:15:37.105Z,931.8
2018-01-07T12:16:50.079Z,931.77
2018-01-07T12:18:03.184Z,931.79
2018-01-07T12:19:16.222Z,931.79
2018-01-07T12:20:29.217Z,931.82
2018-01-07T12:21:42.562Z,931.83
2018-01-07T12:22:55.607Z,931.81
2018-01-07T12:24:08.165Z,931.84
2018-01-07T12:25:21.210Z,931.83
2018-01-07T12:26:34.215Z,931.86
2018-01-07T12:27:47.199Z,931.83
2018-01-07T12:29:00.253Z,931.84
2018-01-07T12:30:13.272Z,931.82
2018-01-07T12:31:26.357Z,931.82
2018-01-07T12:32:39.324Z,931.83
2018-01-07T12:33:52.332Z,931.8
2018-01-07T12:35:05.403Z,931.86
2018-01-07T12:36:18.482Z,931.83
2018-01-07T12:37:31.578Z,931.87
2018-01-07T12:38:44.625Z,931.87
2018-01-07T12:39:57.714Z,931.89
2018-01-07T12:41:10.764Z,931.87
2018-01-07T12:42:23.862Z,931.86
2018-01-07T12:43:36.917Z,931.87
2018-01-07T12:44:49.976Z,931.85
2018-01-07T12:46:03.083Z,931.85
2018-01-07T12:47:16.116Z,931.85
2018-01-07T12:48:29.092Z,931.83
2018-01-07T12:49:41.652Z,931.85
2018-01-07T12:50:54.809Z,931.85
2018-01-07T12:52:07.825Z,931.82
2018-01-07T12:53:20.869Z,931.84
2018-01-07T12:54:33.838Z,931.81
2018-01-07T12:55:46.841Z,931.81
2018-01-07T12:56:59.832Z,931.8
2018-01-07T12:58:12.854Z,931.8
2018-01-07T12:59:25.837Z,931.86
2018-01-07T13:00:38.853Z,931.82
2018-01-07T13:01:51.895Z,931.84
2018-01-07T13:03:04.673Z,931.84
2018-01-07T13:04:17.707Z,931.83
2018-01-07T13:05:30.694Z,931.82
2018-01-07T13:06:43.675Z,931.8
2018-01-07T13:07:56.694Z,931.78
2018-01-07T13:09:09.747Z,931.8
2018-01-07T13:10:22.726Z,931.79
2018-01-07T13:11:35.759Z,931.77
2018-01-07T13:12:48.754Z,931.77
2018-01-07T13:14:01.782Z,931.74
2018-01-07T13:15:14.770Z,931.78
2018-01-07T13:16:27.788Z,931.73
2018-01-07T13:17:40.780Z,931.77
2018-01-07T13:18:53.777Z,931.74
2018-01-07T13:20:06.814Z,931.75
2018-01-07T13:21:19.817Z,931.73
2018-01-07T13:22:32.858Z,931.71
2018-01-07T13:23:45.958Z,931.63
2018-01-07T13:24:58.953Z,931.65
2018-01-07T13:26:11.946Z,931.58
2018-01-07T13:27:24.960Z,931.61
2018-01-07T13:28:37.949Z,931.57
2018-01-07T13:29:50.938Z,931.61
2018-01-07T13:31:04.011Z,931.56
2018-01-07T13:32:16.997Z,931.57
2018-01-07T13:33:30.061Z,931.5
2018-01-07T13:34:43.091Z,931.52
2018-01-07T13:35:56.115Z,931.51
2018-01-07T13:37:09.204Z,931.48
2018-01-07T13:38:22.226Z,931.52
2018-01-07T13:39:35.294Z,931.54
2018-01-07T13:40:48.347Z,931.52
2018-01-07T13:42:01.323Z,931.5
2018-01-07T13:43:14.324Z,931.53
2018-01-07T13:44:27.325Z,931.49
2018-01-07T13:45:40.311Z,931.54
2018-01-07T13:46:52.875Z,931.49
2018-01-07T13:48:05.860Z,931.53
2018-01-07T13:49:18.920Z,931.52
2018-01-07T13:50:32.007Z,931.49
2018-01-07T13:51:44.969Z,931.51
2018-01-07T13:52:57.997Z,931.54
2018-01-07T13:54:11.007Z,931.51
2018-01-07T13:55:24.014Z,931.52
2018-01-07T13:56:36.808Z,931.5
2018-01-07T13:57:49.820Z,931.48
2018-01-07T13:59:02.856Z,931.5
2018-01-07T14:00:15.897Z,931.49
2018-01-07T14:01:28.411Z,931.5
2018-01-07T14:02:41.406Z,931.47
2018-01-07T14:03:54.433Z,931.53
2018-01-07T14:05:07.403Z,931.52
2018-01-07T14:06:20.406Z,931.52
2018-01-07T14:07:33.409Z,931.51
2018-01-07T14:08:46.438Z,931.49
2018-01-07T14:09:59.026Z,931.51
2018-01-07T14:11:12.075Z,931.48
2018-01-07T14:12:25.133Z,931.47
2018-01-07T14:13:38.140Z,931.49
2018-01-07T14:14:51.188Z,931.49
2018-01-07T14:16:03.785Z,931.49
2018-01-07T14:17:16.817Z,931.42
2018-01-07T14:18:29.868Z,931.4
2018-01-07T14:19:42.897Z,931.4
2018-01-07T14:20:55.409Z,931.39
2018-01-07T14:22:08.369Z,931.38
2018-01-07T14:23:21.347Z,931.34
2018-01-07T14:24:34.173Z,931.29
2018-01-07T14:25:47.206Z,931.25
2018-01-07T14:27:00.229Z,931.29
2018-01-07T14:28:13.218Z,931.27
2018-01-07T14:29:26.289Z,931.29
2018-01-07T14:30:39.298Z,931.27
2018-01-07T14:31:52.378Z,931.31
2018-01-07T14:33:05.399Z,931.28
2018-01-07T14:34:18.401Z,931.32
2018-01-07T14:35:31.441Z,931.29
2018-01-07T14:36:43.978Z,931.28
2018-01-07T14:37:57.015Z,931.26
2018-01-07T14:39:09.372Z,931.28
2018-01-07T14:40:21.942Z,931.27
2018-01-07T14:41:35.008Z,931.27
2018-01-07T14:42:48.086Z,931.34
2018-01-07T14:44:01.194Z,931.34
2018-01-07T14:45:14.228Z,931.35
2018-01-07T14:46:27.245Z,931.28
2018-01-07T14:47:40.224Z,931.27
2018-01-07T14:48:53.220Z,931.31
2018-01-07T14:50:06.204Z,931.32
2018-01-07T14:51:19.230Z,931.41
2018-01-07T14:52:32.252Z,931.39
2018-01-07T14:53:44.997Z,931.4
2018-01-07T14:54:58.050Z,931.4
2018-01-07T14:56:11.143Z,931.4
2018-01-07T14:57:24.223Z,931.36
2018-01-07T14:58:36.818Z,931.35
2018-01-07T14:59:49.922Z,931.34
2018-01-07T15:01:03.026Z,931.34
2018-01-07T15:02:16.134Z,931.36
2018-01-07T15:03:29.492Z,931.34
2018-01-07T15:06:26.658Z,931.27
2018-01-07T15:07:59.070Z,931.24
2018-01-07T15:10:56.014Z,931.19
2018-01-07T15:14:24.777Z,931.1
2018-01-07T15:17:53.649Z,930.99
2018-01-07T15:19:06.873Z,930.97
2018-01-07T15:21:22.519Z,930.93
2018-01-07T15:22:35.932Z,930.89
2018-01-07T15:24:51.586Z,930.93